createdAt,value
2019-03-13T05:02:38.620Z,7.10
2019-03-13T05:05:07.855Z,7.00
2019-03-13T05:07:37.321Z,7.00
2019-03-13T05:10:07.868Z,6.90
2019-03-13T05:12:36.780Z,6.90
2019-03-13T05:15:06.134Z,6.80
2019-03-13T05:17:35.228Z,6.80
2019-03-13T05:20:04.215Z,6.80
2019-03-13T05:22:33.083Z,6.70
2019-03-13T05:25:02.617Z,6.60
2019-03-13T05:27:31.424Z,6.60
2019-03-13T05:30:00.405Z,6.60
2019-03-13T05:32:29.426Z,6.50
2019-03-13T05:34:58.625Z,6.50
2019-03-13T05:37:27.517Z,6.40
2019-03-13T05:39:56.351Z,6.40
2019-03-13T05:42:25.768Z,6.40
2019-03-13T05:44:54.548Z,6.40
2019-03-13T05:47:23.648Z,6.30
2019-03-13T05:49:52.470Z,6.30
2019-03-13T05:52:21.344Z,6.30
2019-03-13T05:54:50.421Z,6.30
2019-03-13T05:57:38.766Z,6.30
2019-03-13T06:00:08.804Z,6.30
2019-03-13T06:02:37.979Z,6.40
2019-03-13T06:05:07.286Z,6.50
2019-03-13T06:07:36.151Z,6.50
2019-03-13T06:10:05.786Z,6.40
2019-03-13T06:12:34.803Z,6.30
2019-03-13T06:15:04.492Z,6.30
2019-03-13T06:17:33.777Z,6.30
2019-03-13T06:20:02.643Z,6.40
2019-03-13T06:22:31.460Z,6.40
2019-03-13T06:25:00.861Z,6.50
2019-03-13T06:27:29.970Z,6.50
2019-03-13T06:29:59.144Z,6.50
2019-03-13T06:32:28.353Z,6.50
2019-03-13T06:34:57.158Z,6.50
2019-03-13T06:37:26.328Z,6.50
2019-03-13T06:39:55.992Z,6.50
2019-03-13T06:42:24.875Z,6.60
2019-03-13T06:44:53.733Z,6.60
2019-03-13T06:47:25.123Z,6.70
2019-03-13T06:49:53.996Z,6.70
2019-03-13T06:52:23.460Z,6.70
2019-03-13T06:54:52.557Z,6.70
2019-03-13T06:57:21.758Z,6.80
2019-03-13T07:00:09.077Z,6.80
2019-03-13T07:02:45.426Z,6.80
2019-03-13T07:05:22.788Z,6.90
2019-03-13T07:08:04.821Z,6.90
2019-03-13T07:10:59.280Z,7.00
2019-03-13T07:13:34.864Z,7.10
2019-03-13T07:16:19.262Z,7.10
2019-03-13T07:18:57.016Z,7.20
2019-03-13T07:21:39.338Z,7.20
2019-03-13T07:24:14.143Z,7.30
2019-03-13T07:27:05.681Z,7.30
2019-03-13T07:29:44.472Z,7.30
2019-03-13T07:32:36.013Z,7.40
2019-03-13T07:35:17.052Z,7.40
2019-03-13T07:38:23.200Z,7.50
2019-03-13T07:40:58.162Z,7.50
2019-03-13T07:43:45.591Z,7.50
2019-03-13T07:46:28.609Z,7.60
2019-03-13T07:49:11.340Z,7.60
2019-03-13T07:52:12.390Z,7.60
2019-03-13T07:54:59.243Z,7.70
2019-03-13T07:57:41.400Z,7.80
2019-03-13T08:00:30.202Z,7.80
2019-03-13T08:03:33.757Z,7.80
2019-03-13T08:06:30.869Z,7.90
2019-03-13T08:09:10.037Z,7.90
2019-03-13T08:12:01.187Z,7.90
2019-03-13T08:14:55.848Z,7.90
2019-03-13T08:17:42.523Z,8.00
2019-03-13T08:20:30.904Z,8.10
2019-03-13T08:23:14.451Z,8.10
2019-03-13T08:26:10.881Z,8.10
2019-03-13T08:29:01.611Z,8.20
2019-03-13T08:31:56.769Z,8.30
2019-03-13T08:34:43.370Z,8.30
2019-03-13T08:37:37.354Z,8.20
2019-03-13T08:40:31.516Z,8.30
2019-03-13T08:43:12.946Z,8.40
2019-03-13T08:45:47.772Z,8.40
2019-03-13T08:48:39.052Z,8.40
2019-03-13T08:51:36.421Z,8.40
2019-03-13T08:54:19.135Z,8.40
2019-03-13T08:56:56.527Z,8.50
2019-03-13T08:59:31.141Z,8.50
2019-03-13T09:02:11.717Z,8.50
2019-03-13T09:04:54.124Z,8.60
2019-03-13T09:07:41.141Z,8.70
2019-03-13T09:10:49.465Z,8.50
2019-03-13T09:13:23.041Z,8.30
2019-03-13T09:16:10.127Z,8.40
2019-03-13T09:18:58.104Z,8.60
2019-03-13T09:22:04.195Z,8.80
2019-03-13T09:24:52.512Z,9.10
2019-03-13T09:27:44.033Z,9.40
2019-03-13T09:30:28.486Z,9.50
2019-03-13T09:33:17.146Z,9.40
2019-03-13T09:36:03.851Z,9.50
2019-03-13T09:38:41.649Z,9.60
2019-03-13T09:41:32.430Z,9.60
2019-03-13T09:44:09.948Z,9.90
2019-03-13T09:46:56.875Z,9.90
2019-03-13T09:49:48.982Z,9.70
2019-03-13T09:52:52.380Z,9.60
2019-03-13T09:55:31.233Z,9.70
2019-03-13T09:58:19.440Z,9.70
2019-03-13T10:01:00.349Z,9.60
2019-03-13T10:03:39.156Z,9.60
2019-03-13T10:06:26.739Z,9.70
2019-03-13T10:09:13.708Z,9.70
2019-03-13T10:11:56.976Z,9.90
2019-03-13T10:14:41.384Z,9.90
2019-03-13T10:17:28.283Z,9.90
2019-03-13T10:20:15.610Z,9.80
2019-03-13T10:22:53.825Z,9.80
2019-03-13T10:25:34.343Z,9.70
2019-03-13T10:28:17.693Z,9.60
2019-03-13T10:31:07.183Z,9.70
2019-03-13T10:33:45.781Z,9.80
2019-03-13T10:36:43.148Z,10.00
2019-03-13T10:39:34.123Z,10.20
2019-03-13T10:42:22.361Z,10.10
2019-03-13T10:45:13.136Z,9.80
2019-03-13T10:47:50.272Z,9.90
2019-03-13T10:50:30.540Z,9.90
2019-03-13T10:53:08.328Z,10.10
2019-03-13T10:55:50.041Z,10.20
2019-03-13T10:58:31.205Z,10.30
2019-03-13T11:01:05.124Z,10.40
2019-03-13T11:04:09.036Z,10.50
2019-03-13T11:06:59.860Z,10.60
2019-03-13T11:09:59.676Z,10.70
2019-03-13T11:12:48.641Z,10.70
2019-03-13T11:15:33.620Z,10.80
2019-03-13T11:18:18.349Z,10.70
2019-03-13T11:21:06.646Z,10.50
2019-03-13T11:23:47.649Z,10.50
2019-03-13T11:26:29.288Z,10.30
2019-03-13T11:29:10.029Z,10.20
2019-03-13T11:31:58.240Z,10.00
2019-03-13T11:34:47.647Z,10.00
2019-03-13T11:37:48.044Z,10.10
2019-03-13T11:40:26.197Z,10.10
2019-03-13T11:43:03.270Z,10.10
2019-03-13T11:45:39.857Z,10.30
2019-03-13T11:48:37.304Z,10.30
2019-03-13T11:51:16.954Z,10.40
2019-03-13T11:54:01.092Z,10.50
2019-03-13T11:56:40.145Z,10.50
2019-03-13T11:59:46.416Z,10.30
2019-03-13T12:02:37.103Z,10.30
2019-03-13T12:05:28.719Z,10.60
2019-03-13T12:08:18.883Z,10.80
2019-03-13T12:10:59.835Z,10.60
2019-03-13T12:13:43.417Z,10.50
2019-03-13T12:16:29.004Z,10.30
2019-03-13T12:19:06.165Z,10.50
2019-03-13T12:21:42.456Z,10.60
2019-03-13T12:24:27.630Z,10.50
2019-03-13T12:27:04.084Z,10.40
2019-03-13T12:29:58.237Z,10.00
2019-03-13T12:32:49.680Z,10.00
2019-03-13T12:35:52.702Z,10.00
2019-03-13T12:38:35.592Z,9.80
2019-03-13T12:41:21.276Z,9.80
2019-03-13T12:44:08.273Z,9.90
2019-03-13T12:46:49.719Z,10.00
2019-03-13T12:49:38.221Z,10.10
2019-03-13T12:52:18.081Z,9.90
2019-03-13T12:55:12.133Z,9.90
2019-03-13T12:58:09.389Z,10.00
2019-03-13T13:01:13.208Z,10.10
2019-03-13T13:03:50.805Z,10.10
2019-03-13T13:06:41.661Z,10.00
2019-03-13T13:09:33.345Z,10.10
2019-03-13T13:12:25.978Z,10.10
2019-03-13T13:15:06.339Z,10.10
2019-03-13T13:18:06.487Z,10.20
2019-03-13T13:20:35.428Z,10.30
2019-03-13T13:23:04.215Z,10.30
2019-03-13T13:25:33.076Z,10.40
2019-03-13T13:28:02.242Z,10.50
2019-03-13T13:30:31.504Z,10.80
2019-03-13T13:33:00.615Z,10.90
2019-03-13T13:35:29.707Z,11.00
2019-03-13T13:37:58.500Z,11.10
2019-03-13T13:40:27.840Z,11.10
2019-03-13T13:42:56.992Z,11.20
2019-03-13T13:45:46.571Z,11.30
2019-03-13T13:48:15.499Z,11.20
2019-03-13T13:50:44.668Z,11.00
2019-03-13T13:53:13.544Z,11.20
2019-03-13T13:55:42.741Z,11.20
2019-03-13T13:58:11.718Z,11.30
2019-03-13T14:00:40.639Z,11.00
2019-03-13T14:03:09.926Z,11.00
2019-03-13T14:05:40.844Z,10.90
2019-03-13T14:08:10.611Z,11.00
2019-03-13T14:10:40.023Z,11.10
2019-03-13T14:13:08.980Z,11.20
2019-03-13T14:15:38.412Z,11.30
2019-03-13T14:18:07.483Z,11.60
2019-03-13T14:20:36.420Z,11.90
2019-03-13T14:23:05.958Z,11.90
2019-03-13T14:25:35.459Z,11.80
2019-03-13T14:28:04.580Z,11.60
2019-03-13T14:30:33.556Z,11.70
2019-03-13T14:33:02.413Z,11.60
2019-03-13T14:35:31.466Z,11.60
2019-03-13T14:38:00.406Z,11.60
2019-03-13T14:40:29.624Z,11.40
2019-03-13T14:42:58.746Z,11.40
2019-03-13T14:45:27.941Z,11.50
2019-03-13T14:47:57.732Z,11.10
2019-03-13T14:50:26.821Z,11.00
2019-03-13T14:52:56.031Z,10.70
2019-03-13T14:55:25.213Z,10.70
2019-03-13T14:57:54.075Z,10.60
2019-03-13T15:00:23.114Z,10.50
2019-03-13T15:02:52.596Z,10.40
2019-03-13T15:05:22.204Z,10.40
2019-03-13T15:07:51.339Z,10.50
2019-03-13T15:10:20.741Z,10.40
2019-03-13T15:12:50.107Z,10.40
2019-03-13T15:15:19.508Z,10.40
2019-03-13T15:17:52.955Z,10.50
2019-03-13T15:20:20.833Z,10.40
2019-03-13T15:22:49.879Z,10.40
2019-03-13T15:25:18.761Z,10.40
2019-03-13T15:27:48.175Z,10.50
2019-03-13T15:30:19.540Z,10.60
2019-03-13T15:32:48.750Z,10.40
2019-03-13T15:35:17.725Z,10.30
2019-03-13T15:37:47.018Z,10.40
2019-03-13T15:40:16.396Z,10.40
2019-03-13T15:42:45.525Z,10.40
2019-03-13T15:45:16.556Z,10.30
2019-03-13T15:47:45.628Z,10.30
2019-03-13T15:50:14.959Z,10.30
2019-03-13T15:52:44.002Z,10.30
2019-03-13T15:55:13.643Z,10.20
2019-03-13T15:57:42.646Z,10.20
2019-03-13T16:00:14.924Z,10.20
2019-03-13T16:02:44.077Z,10.10
2019-03-13T16:05:13.245Z,10.00
2019-03-13T16:07:44.261Z,9.90
2019-03-13T16:10:13.567Z,9.90
2019-03-13T16:12:45.044Z,9.90
2019-03-13T16:15:17.697Z,10.00
2019-03-13T16:17:48.039Z,9.90
2019-03-13T16:20:19.455Z,9.90
2019-03-13T16:22:53.736Z,9.90
2019-03-13T16:25:23.476Z,9.90
2019-03-13T16:27:53.439Z,9.90
2019-03-13T16:30:25.975Z,9.80
2019-03-13T16:32:59.088Z,9.80
2019-03-13T16:35:28.324Z,9.80
2019-03-13T16:37:58.922Z,9.80
2019-03-13T16:40:27.824Z,9.80
2019-03-13T16:42:57.001Z,9.70
2019-03-13T16:45:26.997Z,9.70
2019-03-13T16:48:06.869Z,9.80
2019-03-13T16:50:35.757Z,9.70
2019-03-13T16:53:04.803Z,9.70
2019-03-13T16:55:34.191Z,9.80
2019-03-13T16:58:03.480Z,9.70
2019-03-13T17:00:32.453Z,9.70
2019-03-13T17:03:01.409Z,9.70
2019-03-13T17:05:30.630Z,9.70
2019-03-13T17:07:59.873Z,9.60
2019-03-13T17:10:29.139Z,9.70
2019-03-13T17:12:58.566Z,9.60
2019-03-13T17:15:27.930Z,9.60
2019-03-13T17:17:56.814Z,9.60
2019-03-13T17:20:26.667Z,9.60
2019-03-13T17:22:55.645Z,9.70
2019-03-13T17:25:24.970Z,9.60
2019-03-13T17:27:56.218Z,9.70
2019-03-13T17:30:26.109Z,9.60
2019-03-13T17:32:55.047Z,9.60
2019-03-13T17:35:24.184Z,9.60
2019-03-13T17:37:53.046Z,9.60
2019-03-13T17:40:23.509Z,9.60
2019-03-13T17:42:53.117Z,9.60
2019-03-13T17:45:22.616Z,9.60
2019-03-13T17:47:53.059Z,9.60
2019-03-13T17:50:22.015Z,9.50
2019-03-13T17:52:51.449Z,9.50
2019-03-13T17:55:20.948Z,9.40
2019-03-13T17:57:49.852Z,9.40
2019-03-13T18:00:28.752Z,9.40
2019-03-13T18:02:57.615Z,9.30
2019-03-13T18:05:26.760Z,9.30
2019-03-13T18:07:56.632Z,9.30
2019-03-13T18:10:26.007Z,9.20
2019-03-13T18:12:55.127Z,9.20
2019-03-13T18:15:24.121Z,9.20
2019-03-13T18:17:52.962Z,9.20
2019-03-13T18:20:21.930Z,9.10
2019-03-13T18:22:50.872Z,9.10
2019-03-13T18:25:20.301Z,9.10
2019-03-13T18:27:49.495Z,9.20
2019-03-13T18:30:20.865Z,9.10
2019-03-13T18:32:49.994Z,9.10
2019-03-13T18:35:19.611Z,9.10
2019-03-13T18:37:49.171Z,9.20
2019-03-13T18:40:18.658Z,9.10
2019-03-13T18:42:48.167Z,9.10
2019-03-13T18:45:19.331Z,9.10
2019-03-13T18:47:48.805Z,9.00
2019-03-13T18:50:18.111Z,9.00
2019-03-13T18:52:47.059Z,9.10
2019-03-13T18:55:17.045Z,9.10
2019-03-13T18:57:46.167Z,9.10
2019-03-13T19:00:26.878Z,9.10
2019-03-13T19:02:55.872Z,9.10
2019-03-13T19:05:25.271Z,9.10
2019-03-13T19:07:54.239Z,9.00
2019-03-13T19:10:23.533Z,9.00
2019-03-13T19:12:53.063Z,8.90
2019-03-13T19:15:22.188Z,8.90
2019-03-13T19:17:51.400Z,8.90
2019-03-13T19:20:21.255Z,8.90
2019-03-13T19:22:50.509Z,8.90
2019-03-13T19:25:20.393Z,8.90
2019-03-13T19:27:49.925Z,8.90
2019-03-13T19:30:24.191Z,8.90
2019-03-13T19:32:53.478Z,8.80
2019-03-13T19:35:22.702Z,8.80
2019-03-13T19:37:51.996Z,8.70
2019-03-13T19:40:21.866Z,8.70
2019-03-13T19:42:50.820Z,8.70
2019-03-13T19:45:22.805Z,8.70
2019-03-13T19:47:52.072Z,8.70
2019-03-13T19:50:21.356Z,8.60
2019-03-13T19:52:50.380Z,8.60
2019-03-13T19:55:19.652Z,8.50
2019-03-13T19:57:49.167Z,8.50
2019-03-13T20:00:20.417Z,8.50
2019-03-13T20:02:59.561Z,8.50
2019-03-13T20:05:20.332Z,8.50
2019-03-13T20:07:49.774Z,8.50
2019-03-13T20:10:21.301Z,8.50
2019-03-13T20:12:50.270Z,8.50
2019-03-13T20:15:20.849Z,8.50
2019-03-13T20:17:50.272Z,8.50
2019-03-13T20:20:20.348Z,8.50
2019-03-13T20:22:51.367Z,8.50
2019-03-13T20:25:20.410Z,8.50
2019-03-13T20:27:49.369Z,8.60
2019-03-13T20:30:19.697Z,8.60
2019-03-13T20:32:48.908Z,8.50
2019-03-13T20:35:18.382Z,8.40
2019-03-13T20:37:48.406Z,8.40
2019-03-13T20:40:19.007Z,8.20
2019-03-13T20:42:48.293Z,8.20
2019-03-13T20:45:21.703Z,8.20
2019-03-13T20:47:51.084Z,8.20
2019-03-13T20:50:20.353Z,8.20
2019-03-13T20:52:49.950Z,8.20
2019-03-13T20:55:19.446Z,8.20
2019-03-13T20:57:48.747Z,8.10
2019-03-13T21:00:20.955Z,8.20
2019-03-13T21:02:50.300Z,8.20
2019-03-13T21:05:19.981Z,8.20
2019-03-13T21:07:48.923Z,8.20
2019-03-13T21:10:18.449Z,8.20
2019-03-13T21:12:47.608Z,8.30
2019-03-13T21:15:16.840Z,8.30
2019-03-13T21:17:46.482Z,8.30
2019-03-13T21:20:15.848Z,8.30
2019-03-13T21:22:45.216Z,8.20
2019-03-13T21:25:15.306Z,8.30
2019-03-13T21:27:47.413Z,8.20
2019-03-13T21:30:17.256Z,8.20
2019-03-13T21:32:46.505Z,8.20
2019-03-13T21:35:15.386Z,8.10
2019-03-13T21:37:44.645Z,8.10
2019-03-13T21:40:14.337Z,8.10
2019-03-13T21:42:43.625Z,8.10
2019-03-13T21:45:22.346Z,8.20
2019-03-13T21:47:44.256Z,8.20
2019-03-13T21:50:13.423Z,8.20
2019-03-13T21:52:42.447Z,8.10
2019-03-13T21:55:15.726Z,8.10
2019-03-13T21:57:45.240Z,8.10
